Witten, South Dakota
Current Conditions -  °F | °C
As of 4:53 AM on Saturday 25 Oct 2014 (Local Time) from KICR Reporting Station
Clear Clear  
Wind Chill: 47°   Ceiling: Unl
Heat Index: 49°   Visibility: 10mi
Dew Point: 36°   Wind: 6mph
Humidity: 61%   Direction: 240°WSW
Pressure: 30.12"   Gusts: NA
Location:  43.44°N, 100.08°W
Report Text: KICR 250953Z AUTO 24005KT 10SM CLR 09/02 A3012 RMK AO2 SLP192 T00940022 $
Loading
Personal Weather Stations






























Interactive Weather Map
Tropical Storm Tracking
New forecast layout! Learn more

10-Day Weather Forecast

Advertisements
Track Severe Weather on mobile